sensor_id;sensor_type;location;lat;lon;timestamp;P1;durP1;ratioP1;P2;durP2;ratioP2
18411;SDS011;27097;51.738;19.472;2023-07-22T00:00:56;4.78;;;3.92;;
18411;SDS011;27097;51.738;19.472;2023-07-22T00:03:23;5.15;;;4.13;;
18411;SDS011;27097;51.738;19.472;2023-07-22T00:06:01;4.50;;;3.70;;
18411;SDS011;27097;51.738;19.472;2023-07-22T00:08:29;5.68;;;4.13;;
18411;SDS011;27097;51.738;19.472;2023-07-22T00:10:56;5.68;;;4.00;;
18411;SDS011;27097;51.738;19.472;2023-07-22T00:13:22;4.57;;;3.88;;
18411;SDS011;27097;51.738;19.472;2023-07-22T00:15:51;5.18;;;4.03;;
18411;SDS011;27097;51.738;19.472;2023-07-22T00:18:20;4.90;;;3.60;;
18411;SDS011;27097;51.738;19.472;2023-07-22T00:20:47;5.80;;;4.03;;
18411;SDS011;27097;51.738;19.472;2023-07-22T00:23:15;6.22;;;4.20;;
18411;SDS011;27097;51.738;19.472;2023-07-22T00:25:44;6.20;;;4.00;;
18411;SDS011;27097;51.738;19.472;2023-07-22T00:28:11;5.43;;;4.10;;
18411;SDS011;27097;51.738;19.472;2023-07-22T00:30:38;6.22;;;4.30;;
18411;SDS011;27097;51.738;19.472;2023-07-22T00:33:05;4.95;;;3.08;;
18411;SDS011;27097;51.738;19.472;2023-07-22T00:35:33;6.78;;;3.22;;
18411;SDS011;27097;51.738;19.472;2023-07-22T00:38:00;6.40;;;3.47;;
18411;SDS011;27097;51.738;19.472;2023-07-22T00:40:27;4.00;;;3.20;;
18411;SDS011;27097;51.738;19.472;2023-07-22T00:42:57;4.03;;;3.17;;
18411;SDS011;27097;51.738;19.472;2023-07-22T00:45:24;3.67;;;3.10;;
18411;SDS011;27097;51.738;19.472;2023-07-22T00:47:51;4.38;;;3.35;;
18411;SDS011;27097;51.738;19.472;2023-07-22T00:50:18;4.28;;;2.95;;
18411;SDS011;27097;51.738;19.472;2023-07-22T00:52:46;4.78;;;2.92;;
18411;SDS011;27097;51.738;19.472;2023-07-22T00:55:13;4.97;;;3.00;;
18411;SDS011;27097;51.738;19.472;2023-07-22T00:57:40;5.45;;;3.28;;
18411;SDS011;27097;51.738;19.472;2023-07-22T01:00:07;3.83;;;3.10;;
18411;SDS011;27097;51.738;19.472;2023-07-22T01:02:36;3.85;;;3.03;;
18411;SDS011;27097;51.738;19.472;2023-07-22T01:05:04;5.30;;;2.95;;
18411;SDS011;27097;51.738;19.472;2023-07-22T01:07:31;2.95;;;2.63;;
18411;SDS011;27097;51.738;19.472;2023-07-22T01:10:00;3.65;;;2.80;;
18411;SDS011;27097;51.738;19.472;2023-07-22T01:12:27;3.78;;;2.97;;
18411;SDS011;27097;51.738;19.472;2023-07-22T01:14:54;3.40;;;3.00;;
18411;SDS011;27097;51.738;19.472;2023-07-22T01:17:21;5.25;;;3.03;;
18411;SDS011;27097;51.738;19.472;2023-07-22T01:19:48;4.68;;;2.72;;
18411;SDS011;27097;51.738;19.472;2023-07-22T01:22:15;5.95;;;2.88;;
18411;SDS011;27097;51.738;19.472;2023-07-22T01:24:44;3.88;;;2.70;;
18411;SDS011;27097;51.738;19.472;2023-07-22T01:27:11;3.25;;;2.40;;
18411;SDS011;27097;51.738;19.472;2023-07-22T01:29:39;3.03;;;2.72;;
18411;SDS011;27097;51.738;19.472;2023-07-22T01:32:06;4.07;;;2.55;;
18411;SDS011;27097;51.738;19.472;2023-07-22T01:34:33;3.53;;;2.53;;
18411;SDS011;27097;51.738;19.472;2023-07-22T01:37:00;4.18;;;2.65;;
18411;SDS011;27097;51.738;19.472;2023-07-22T01:39:28;5.05;;;2.40;;
18411;SDS011;27097;51.738;19.472;2023-07-22T01:41:56;2.90;;;2.55;;
18411;SDS011;27097;51.738;19.472;2023-07-22T01:44:23;3.58;;;2.55;;
18411;SDS011;27097;51.738;19.472;2023-07-22T01:46:50;4.25;;;2.90;;
18411;SDS011;27097;51.738;19.472;2023-07-22T01:49:17;3.03;;;2.60;;
18411;SDS011;27097;51.738;19.472;2023-07-22T01:51:44;4.57;;;2.70;;
18411;SDS011;27097;51.738;19.472;2023-07-22T01:54:10;3.30;;;2.45;;
18411;SDS011;27097;51.738;19.472;2023-07-22T01:56:38;3.58;;;2.35;;
18411;SDS011;27097;51.738;19.472;2023-07-22T01:59:06;3.72;;;2.45;;
18411;SDS011;27097;51.738;19.472;2023-07-22T02:01:34;4.32;;;2.50;;
18411;SDS011;27097;51.738;19.472;2023-07-22T02:04:01;3.42;;;2.75;;
18411;SDS011;27097;51.738;19.472;2023-07-22T02:06:28;3.55;;;2.78;;
18411;SDS011;27097;51.738;19.472;2023-07-22T02:08:55;3.95;;;3.00;;
18411;SDS011;27097;51.738;19.472;2023-07-22T02:11:22;5.20;;;2.85;;
18411;SDS011;27097;51.738;19.472;2023-07-22T02:13:49;3.15;;;2.53;;
18411;SDS011;27097;51.738;19.472;2023-07-22T02:16:17;2.95;;;2.25;;
18411;SDS011;27097;51.738;19.472;2023-07-22T02:18:44;3.65;;;2.70;;
18411;SDS011;27097;51.738;19.472;2023-07-22T02:21:10;3.10;;;2.67;;
18411;SDS011;27097;51.738;19.472;2023-07-22T02:23:37;3.78;;;3.00;;
18411;SDS011;27097;51.738;19.472;2023-07-22T02:26:04;4.00;;;2.83;;
18411;SDS011;27097;51.738;19.472;2023-07-22T02:28:31;4.20;;;2.67;;
18411;SDS011;27097;51.738;19.472;2023-07-22T02:31:00;5.72;;;2.63;;
18411;SDS011;27097;51.738;19.472;2023-07-22T02:33:32;3.53;;;2.70;;
18411;SDS011;27097;51.738;19.472;2023-07-22T02:35:59;2.72;;;2.40;;
18411;SDS011;27097;51.738;19.472;2023-07-22T02:38:26;3.20;;;2.53;;
18411;SDS011;27097;51.738;19.472;2023-07-22T02:40:53;4.22;;;2.45;;
18411;SDS011;27097;51.738;19.472;2023-07-22T02:43:20;2.45;;;2.25;;
18411;SDS011;27097;51.738;19.472;2023-07-22T02:45:47;2.67;;;2.40;;
18411;SDS011;27097;51.738;19.472;2023-07-22T02:48:14;8.35;;;2.88;;
18411;SDS011;27097;51.738;19.472;2023-07-22T02:50:42;2.85;;;2.35;;
18411;SDS011;27097;51.738;19.472;2023-07-22T02:53:09;2.50;;;2.30;;
18411;SDS011;27097;51.738;19.472;2023-07-22T02:55:35;4.10;;;2.35;;
18411;SDS011;27097;51.738;19.472;2023-07-22T02:58:02;3.83;;;2.10;;
18411;SDS011;27097;51.738;19.472;2023-07-22T03:00:30;2.75;;;2.13;;
18411;SDS011;27097;51.738;19.472;2023-07-22T03:02:57;2.80;;;2.15;;
18411;SDS011;27097;51.738;19.472;2023-07-22T03:05:25;2.88;;;2.15;;
18411;SDS011;27097;51.738;19.472;2023-07-22T03:07:54;2.70;;;2.20;;
18411;SDS011;27097;51.738;19.472;2023-07-22T03:10:21;2.33;;;2.13;;
18411;SDS011;27097;51.738;19.472;2023-07-22T03:12:50;2.78;;;2.00;;
18411;SDS011;27097;51.738;19.472;2023-07-22T03:15:20;2.30;;;1.80;;
18411;SDS011;27097;51.738;19.472;2023-07-22T03:17:47;3.38;;;2.28;;
18411;SDS011;27097;51.738;19.472;2023-07-22T03:20:14;2.95;;;2.58;;
18411;SDS011;27097;51.738;19.472;2023-07-22T03:22:44;6.35;;;2.15;;
18411;SDS011;27097;51.738;19.472;2023-07-22T03:25:13;2.50;;;2.17;;
18411;SDS011;27097;51.738;19.472;2023-07-22T03:27:42;3.10;;;2.08;;
18411;SDS011;27097;51.738;19.472;2023-07-22T03:30:10;2.47;;;2.03;;
18411;SDS011;27097;51.738;19.472;2023-07-22T03:32:39;3.63;;;2.80;;
18411;SDS011;27097;51.738;19.472;2023-07-22T03:35:07;2.70;;;2.17;;
18411;SDS011;27097;51.738;19.472;2023-07-22T03:37:35;2.33;;;2.00;;
18411;SDS011;27097;51.738;19.472;2023-07-22T03:40:02;3.55;;;2.50;;
18411;SDS011;27097;51.738;19.472;2023-07-22T03:42:33;3.22;;;2.22;;
18411;SDS011;27097;51.738;19.472;2023-07-22T03:45:00;3.05;;;2.10;;
18411;SDS011;27097;51.738;19.472;2023-07-22T03:47:27;2.22;;;2.03;;
18411;SDS011;27097;51.738;19.472;2023-07-22T03:49:54;4.43;;;2.17;;
18411;SDS011;27097;51.738;19.472;2023-07-22T03:52:21;2.30;;;1.90;;
18411;SDS011;27097;51.738;19.472;2023-07-22T03:54:49;2.17;;;1.95;;
18411;SDS011;27097;51.738;19.472;2023-07-22T03:57:16;3.80;;;1.90;;
18411;SDS011;27097;51.738;19.472;2023-07-22T03:59:44;3.72;;;2.20;;
18411;SDS011;27097;51.738;19.472;2023-07-22T04:02:11;3.42;;;2.40;;
18411;SDS011;27097;51.738;19.472;2023-07-22T04:04:37;2.30;;;2.10;;
18411;SDS011;27097;51.738;19.472;2023-07-22T04:07:04;2.78;;;1.90;;
18411;SDS011;27097;51.738;19.472;2023-07-22T04:09:33;2.03;;;1.83;;
18411;SDS011;27097;51.738;19.472;2023-07-22T04:12:00;2.88;;;2.00;;
18411;SDS011;27097;51.738;19.472;2023-07-22T04:14:27;2.33;;;2.08;;
18411;SDS011;27097;51.738;19.472;2023-07-22T04:16:56;2.67;;;2.17;;
18411;SDS011;27097;51.738;19.472;2023-07-22T04:19:23;3.33;;;2.30;;
18411;SDS011;27097;51.738;19.472;2023-07-22T04:21:50;3.33;;;2.30;;
18411;SDS011;27097;51.738;19.472;2023-07-22T04:24:17;2.30;;;1.80;;
18411;SDS011;27097;51.738;19.472;2023-07-22T04:26:44;2.85;;;2.00;;
18411;SDS011;27097;51.738;19.472;2023-07-22T04:29:11;3.20;;;1.90;;
18411;SDS011;27097;51.738;19.472;2023-07-22T04:31:37;4.45;;;2.00;;
18411;SDS011;27097;51.738;19.472;2023-07-22T04:34:06;2.67;;;1.98;;
18411;SDS011;27097;51.738;19.472;2023-07-22T04:36:32;1.88;;;1.70;;
18411;SDS011;27097;51.738;19.472;2023-07-22T04:38:59;2.40;;;1.70;;
18411;SDS011;27097;51.738;19.472;2023-07-22T04:41:28;3.05;;;1.80;;
18411;SDS011;27097;51.738;19.472;2023-07-22T04:43:55;3.35;;;1.70;;
18411;SDS011;27097;51.738;19.472;2023-07-22T04:46:23;3.03;;;1.73;;
18411;SDS011;27097;51.738;19.472;2023-07-22T04:48:50;3.13;;;1.70;;
18411;SDS011;27097;51.738;19.472;2023-07-22T04:51:20;3.65;;;1.80;;
18411;SDS011;27097;51.738;19.472;2023-07-22T04:53:47;3.88;;;1.80;;
18411;SDS011;27097;51.738;19.472;2023-07-22T04:56:14;4.53;;;1.70;;
18411;SDS011;27097;51.738;19.472;2023-07-22T04:58:41;3.22;;;1.90;;
18411;SDS011;27097;51.738;19.472;2023-07-22T05:01:08;3.00;;;1.90;;
18411;SDS011;27097;51.738;19.472;2023-07-22T05:03:35;4.65;;;1.90;;
18411;SDS011;27097;51.738;19.472;2023-07-22T05:06:02;3.65;;;1.90;;
18411;SDS011;27097;51.738;19.472;2023-07-22T05:08:30;3.40;;;2.00;;
18411;SDS011;27097;51.738;19.472;2023-07-22T05:10:57;4.28;;;2.15;;
18411;SDS011;27097;51.738;19.472;2023-07-22T05:13:24;4.45;;;2.08;;
18411;SDS011;27097;51.738;19.472;2023-07-22T05:15:51;2.30;;;1.75;;
18411;SDS011;27097;51.738;19.472;2023-07-22T05:18:17;2.03;;;1.83;;
18411;SDS011;27097;51.738;19.472;2023-07-22T05:20:44;2.78;;;1.88;;
18411;SDS011;27097;51.738;19.472;2023-07-22T05:23:11;2.28;;;1.73;;
18411;SDS011;27097;51.738;19.472;2023-07-22T05:25:39;2.83;;;1.88;;
18411;SDS011;27097;51.738;19.472;2023-07-22T05:28:06;2.78;;;1.88;;
18411;SDS011;27097;51.738;19.472;2023-07-22T05:30:33;3.05;;;2.13;;
18411;SDS011;27097;51.738;19.472;2023-07-22T05:33:00;1.70;;;1.60;;
18411;SDS011;27097;51.738;19.472;2023-07-22T05:35:26;2.28;;;2.08;;
18411;SDS011;27097;51.738;19.472;2023-07-22T05:37:53;3.35;;;1.75;;
18411;SDS011;27097;51.738;19.472;2023-07-22T05:40:20;3.95;;;1.92;;
18411;SDS011;27097;51.738;19.472;2023-07-22T05:42:48;2.95;;;2.05;;
18411;SDS011;27097;51.738;19.472;2023-07-22T05:45:15;3.78;;;1.83;;
18411;SDS011;27097;51.738;19.472;2023-07-22T05:47:42;3.42;;;1.80;;
18411;SDS011;27097;51.738;19.472;2023-07-22T05:50:09;3.85;;;1.70;;
18411;SDS011;27097;51.738;19.472;2023-07-22T05:52:36;2.25;;;1.85;;
18411;SDS011;27097;51.738;19.472;2023-07-22T05:55:03;3.67;;;1.80;;
18411;SDS011;27097;51.738;19.472;2023-07-22T05:57:30;3.42;;;1.98;;
18411;SDS011;27097;51.738;19.472;2023-07-22T05:59:59;2.28;;;1.80;;
18411;SDS011;27097;51.738;19.472;2023-07-22T06:02:25;3.03;;;1.83;;
18411;SDS011;27097;51.738;19.472;2023-07-22T06:04:52;2.53;;;1.88;;
18411;SDS011;27097;51.738;19.472;2023-07-22T06:07:19;2.80;;;1.92;;
18411;SDS011;27097;51.738;19.472;2023-07-22T06:09:46;9.52;;;1.90;;
18411;SDS011;27097;51.738;19.472;2023-07-22T06:12:13;2.45;;;1.60;;
18411;SDS011;27097;51.738;19.472;2023-07-22T06:14:40;2.92;;;1.60;;
18411;SDS011;27097;51.738;19.472;2023-07-22T06:17:08;1.73;;;1.63;;
18411;SDS011;27097;51.738;19.472;2023-07-22T06:19:35;2.20;;;1.60;;
18411;SDS011;27097;51.738;19.472;2023-07-22T06:22:02;2.08;;;1.52;;
18411;SDS011;27097;51.738;19.472;2023-07-22T06:24:29;2.92;;;1.52;;
18411;SDS011;27097;51.738;19.472;2023-07-22T06:26:56;2.70;;;1.65;;
18411;SDS011;27097;51.738;19.472;2023-07-22T06:29:22;3.30;;;1.85;;
18411;SDS011;27097;51.738;19.472;2023-07-22T06:31:49;2.90;;;1.60;;
18411;SDS011;27097;51.738;19.472;2023-07-22T06:34:17;4.28;;;1.73;;
18411;SDS011;27097;51.738;19.472;2023-07-22T06:36:44;2.63;;;1.83;;
18411;SDS011;27097;51.738;19.472;2023-07-22T06:39:11;6.63;;;1.80;;
18411;SDS011;27097;51.738;19.472;2023-07-22T06:41:38;1.85;;;1.50;;
18411;SDS011;27097;51.738;19.472;2023-07-22T06:44:05;4.25;;;1.55;;
18411;SDS011;27097;51.738;19.472;2023-07-22T06:46:32;3.38;;;1.60;;
18411;SDS011;27097;51.738;19.472;2023-07-22T06:48:58;2.72;;;1.60;;
18411;SDS011;27097;51.738;19.472;2023-07-22T06:51:27;2.88;;;1.67;;
18411;SDS011;27097;51.738;19.472;2023-07-22T06:53:54;2.42;;;1.50;;
18411;SDS011;27097;51.738;19.472;2023-07-22T06:56:20;3.08;;;1.60;;
18411;SDS011;27097;51.738;19.472;2023-07-22T06:58:47;5.70;;;1.60;;
18411;SDS011;27097;51.738;19.472;2023-07-22T07:01:16;2.15;;;1.40;;
18411;SDS011;27097;51.738;19.472;2023-07-22T07:03:42;2.83;;;1.50;;
18411;SDS011;27097;51.738;19.472;2023-07-22T07:06:10;5.53;;;1.50;;
18411;SDS011;27097;51.738;19.472;2023-07-22T07:08:39;3.00;;;1.33;;
18411;SDS011;27097;51.738;19.472;2023-07-22T07:11:05;2.08;;;1.40;;
18411;SDS011;27097;51.738;19.472;2023-07-22T07:13:32;3.17;;;1.40;;
18411;SDS011;27097;51.738;19.472;2023-07-22T07:18:48;2.75;;;1.30;;
18411;SDS011;27097;51.738;19.472;2023-07-22T07:21:14;2.85;;;1.50;;
18411;SDS011;27097;51.738;19.472;2023-07-22T07:23:43;3.00;;;1.30;;
18411;SDS011;27097;51.738;19.472;2023-07-22T07:26:10;1.67;;;1.50;;
18411;SDS011;27097;51.738;19.472;2023-07-22T07:28:37;3.05;;;1.50;;
18411;SDS011;27097;51.738;19.472;2023-07-22T07:31:03;1.75;;;1.60;;
18411;SDS011;27097;51.738;19.472;2023-07-22T07:33:30;2.05;;;1.60;;
18411;SDS011;27097;51.738;19.472;2023-07-22T07:35:57;3.70;;;1.67;;
18411;SDS011;27097;51.738;19.472;2023-07-22T07:38:24;5.97;;;1.65;;
18411;SDS011;27097;51.738;19.472;2023-07-22T07:40:53;3.03;;;1.50;;
18411;SDS011;27097;51.738;19.472;2023-07-22T07:43:22;4.85;;;1.70;;
18411;SDS011;27097;51.738;19.472;2023-07-22T07:45:49;4.22;;;1.65;;
18411;SDS011;27097;51.738;19.472;2023-07-22T07:48:16;4.55;;;1.73;;
18411;SDS011;27097;51.738;19.472;2023-07-22T07:50:43;6.05;;;1.60;;
18411;SDS011;27097;51.738;19.472;2023-07-22T07:53:10;3.28;;;1.52;;
18411;SDS011;27097;51.738;19.472;2023-07-22T07:55:36;4.05;;;2.03;;
18411;SDS011;27097;51.738;19.472;2023-07-22T07:58:05;5.60;;;2.00;;
18411;SDS011;27097;51.738;19.472;2023-07-22T08:00:31;6.88;;;1.77;;
18411;SDS011;27097;51.738;19.472;2023-07-22T08:02:58;5.75;;;1.80;;
18411;SDS011;27097;51.738;19.472;2023-07-22T08:05:25;4.63;;;1.65;;
18411;SDS011;27097;51.738;19.472;2023-07-22T08:07:52;3.67;;;1.60;;
18411;SDS011;27097;51.738;19.472;2023-07-22T08:10:19;4.95;;;1.80;;
18411;SDS011;27097;51.738;19.472;2023-07-22T08:12:46;5.15;;;1.95;;
18411;SDS011;27097;51.738;19.472;2023-07-22T08:15:14;4.90;;;2.10;;
18411;SDS011;27097;51.738;19.472;2023-07-22T08:17:41;3.72;;;1.70;;
18411;SDS011;27097;51.738;19.472;2023-07-22T08:20:09;5.28;;;1.63;;
18411;SDS011;27097;51.738;19.472;2023-07-22T08:22:36;6.07;;;1.70;;
18411;SDS011;27097;51.738;19.472;2023-07-22T08:25:03;4.43;;;1.63;;
18411;SDS011;27097;51.738;19.472;2023-07-22T08:27:30;2.95;;;1.60;;
18411;SDS011;27097;51.738;19.472;2023-07-22T08:29:57;2.90;;;1.60;;
18411;SDS011;27097;51.738;19.472;2023-07-22T08:32:25;2.70;;;1.88;;
18411;SDS011;27097;51.738;19.472;2023-07-22T08:34:52;5.63;;;1.60;;
18411;SDS011;27097;51.738;19.472;2023-07-22T08:37:19;2.95;;;1.60;;
18411;SDS011;27097;51.738;19.472;2023-07-22T08:39:46;5.40;;;2.00;;
18411;SDS011;27097;51.738;19.472;2023-07-22T08:42:13;4.32;;;2.00;;
18411;SDS011;27097;51.738;19.472;2023-07-22T08:44:43;4.35;;;2.10;;
18411;SDS011;27097;51.738;19.472;2023-07-22T08:47:14;4.30;;;1.88;;
18411;SDS011;27097;51.738;19.472;2023-07-22T08:49:45;3.10;;;1.80;;
18411;SDS011;27097;51.738;19.472;2023-07-22T08:52:15;4.78;;;1.95;;
18411;SDS011;27097;51.738;19.472;2023-07-22T08:54:44;4.78;;;1.95;;
18411;SDS011;27097;51.738;19.472;2023-07-22T08:57:11;4.53;;;1.90;;
18411;SDS011;27097;51.738;19.472;2023-07-22T08:59:38;4.13;;;1.88;;
18411;SDS011;27097;51.738;19.472;2023-07-22T09:02:06;3.95;;;2.00;;
18411;SDS011;27097;51.738;19.472;2023-07-22T09:04:36;8.93;;;1.92;;
18411;SDS011;27097;51.738;19.472;2023-07-22T09:07:05;2.50;;;1.77;;
18411;SDS011;27097;51.738;19.472;2023-07-22T09:09:32;2.75;;;1.83;;
18411;SDS011;27097;51.738;19.472;2023-07-22T09:12:01;2.70;;;1.80;;
18411;SDS011;27097;51.738;19.472;2023-07-22T09:14:28;2.95;;;1.90;;
18411;SDS011;27097;51.738;19.472;2023-07-22T09:16:58;4.00;;;1.80;;
18411;SDS011;27097;51.738;19.472;2023-07-22T09:19:24;3.50;;;1.70;;
18411;SDS011;27097;51.738;19.472;2023-07-22T09:21:52;2.67;;;1.80;;
18411;SDS011;27097;51.738;19.472;2023-07-22T09:24:23;3.65;;;1.73;;
18411;SDS011;27097;51.738;19.472;2023-07-22T09:26:53;4.18;;;2.00;;
18411;SDS011;27097;51.738;19.472;2023-07-22T09:29:31;5.85;;;1.90;;
18411;SDS011;27097;51.738;19.472;2023-07-22T09:31:59;6.82;;;1.80;;
18411;SDS011;27097;51.738;19.472;2023-07-22T09:34:28;3.47;;;1.85;;
18411;SDS011;27097;51.738;19.472;2023-07-22T09:36:56;4.32;;;1.70;;
18411;SDS011;27097;51.738;19.472;2023-07-22T09:39:26;2.10;;;1.90;;
18411;SDS011;27097;51.738;19.472;2023-07-22T09:41:53;3.45;;;1.85;;
18411;SDS011;27097;51.738;19.472;2023-07-22T09:44:20;1.63;;;1.40;;
18411;SDS011;27097;51.738;19.472;2023-07-22T09:46:47;2.58;;;1.80;;
18411;SDS011;27097;51.738;19.472;2023-07-22T09:49:15;4.00;;;1.70;;
18411;SDS011;27097;51.738;19.472;2023-07-22T09:51:44;2.10;;;1.67;;
18411;SDS011;27097;51.738;19.472;2023-07-22T09:54:11;2.70;;;1.90;;
18411;SDS011;27097;51.738;19.472;2023-07-22T09:56:45;3.25;;;1.70;;
18411;SDS011;27097;51.738;19.472;2023-07-22T09:59:13;3.97;;;1.80;;
18411;SDS011;27097;51.738;19.472;2023-07-22T10:01:41;2.28;;;1.70;;
18411;SDS011;27097;51.738;19.472;2023-07-22T10:04:12;5.95;;;1.67;;
18411;SDS011;27097;51.738;19.472;2023-07-22T10:06:41;3.10;;;1.83;;
18411;SDS011;27097;51.738;19.472;2023-07-22T10:09:10;3.95;;;2.00;;
18411;SDS011;27097;51.738;19.472;2023-07-22T10:11:37;4.55;;;1.60;;
18411;SDS011;27097;51.738;19.472;2023-07-22T10:14:07;3.67;;;1.83;;
18411;SDS011;27097;51.738;19.472;2023-07-22T10:16:33;2.85;;;1.60;;
18411;SDS011;27097;51.738;19.472;2023-07-22T10:19:02;2.42;;;1.52;;
18411;SDS011;27097;51.738;19.472;2023-07-22T10:21:30;9.05;;;1.80;;
18411;SDS011;27097;51.738;19.472;2023-07-22T10:23:58;5.65;;;2.10;;
18411;SDS011;27097;51.738;19.472;2023-07-22T10:26:27;3.40;;;1.80;;
18411;SDS011;27097;51.738;19.472;2023-07-22T10:28:54;9.90;;;1.90;;
18411;SDS011;27097;51.738;19.472;2023-07-22T10:31:24;5.28;;;1.63;;
18411;SDS011;27097;51.738;19.472;2023-07-22T10:33:51;5.15;;;1.90;;
18411;SDS011;27097;51.738;19.472;2023-07-22T10:36:18;3.85;;;1.92;;
18411;SDS011;27097;51.738;19.472;2023-07-22T10:38:45;2.22;;;1.90;;
18411;SDS011;27097;51.738;19.472;2023-07-22T10:41:22;2.85;;;1.60;;
18411;SDS011;27097;51.738;19.472;2023-07-22T10:43:53;2.63;;;1.95;;
18411;SDS011;27097;51.738;19.472;2023-07-22T10:46:32;5.30;;;1.88;;
18411;SDS011;27097;51.738;19.472;2023-07-22T10:49:09;6.38;;;2.03;;
18411;SDS011;27097;51.738;19.472;2023-07-22T10:51:37;2.10;;;1.63;;
18411;SDS011;27097;51.738;19.472;2023-07-22T10:54:10;3.35;;;1.92;;
18411;SDS011;27097;51.738;19.472;2023-07-22T10:56:37;2.83;;;2.25;;
18411;SDS011;27097;51.738;19.472;2023-07-22T10:59:04;4.13;;;1.95;;
18411;SDS011;27097;51.738;19.472;2023-07-22T11:01:36;2.47;;;2.13;;
18411;SDS011;27097;51.738;19.472;2023-07-22T11:04:13;2.58;;;2.13;;
18411;SDS011;27097;51.738;19.472;2023-07-22T11:06:54;3.13;;;2.25;;
18411;SDS011;27097;51.738;19.472;2023-07-22T11:09:34;3.85;;;2.20;;
18411;SDS011;27097;51.738;19.472;2023-07-22T11:12:05;2.72;;;2.20;;
18411;SDS011;27097;51.738;19.472;2023-07-22T11:14:34;3.22;;;2.35;;
18411;SDS011;27097;51.738;19.472;2023-07-22T11:17:05;5.47;;;2.17;;
18411;SDS011;27097;51.738;19.472;2023-07-22T11:19:33;4.00;;;2.40;;
18411;SDS011;27097;51.738;19.472;2023-07-22T11:22:00;2.90;;;2.30;;
18411;SDS011;27097;51.738;19.472;2023-07-22T11:24:27;3.65;;;2.30;;
18411;SDS011;27097;51.738;19.472;2023-07-22T11:26:55;4.63;;;2.60;;
18411;SDS011;27097;51.738;19.472;2023-07-22T11:29:22;8.85;;;2.70;;
18411;SDS011;27097;51.738;19.472;2023-07-22T11:31:49;5.68;;;2.75;;
18411;SDS011;27097;51.738;19.472;2023-07-22T11:34:19;4.22;;;2.53;;
18411;SDS011;27097;51.738;19.472;2023-07-22T11:36:47;6.03;;;2.33;;
18411;SDS011;27097;51.738;19.472;2023-07-22T11:39:16;4.85;;;2.10;;
18411;SDS011;27097;51.738;19.472;2023-07-22T11:41:44;3.67;;;2.50;;
18411;SDS011;27097;51.738;19.472;2023-07-22T11:44:12;6.75;;;2.45;;
18411;SDS011;27097;51.738;19.472;2023-07-22T11:46:46;4.28;;;2.63;;
18411;SDS011;27097;51.738;19.472;2023-07-22T11:49:22;13.07;;;2.58;;
18411;SDS011;27097;51.738;19.472;2023-07-22T11:51:54;5.55;;;2.40;;
18411;SDS011;27097;51.738;19.472;2023-07-22T11:54:22;15.13;;;2.97;;
18411;SDS011;27097;51.738;19.472;2023-07-22T11:56:49;4.88;;;2.33;;
18411;SDS011;27097;51.738;19.472;2023-07-22T11:59:16;5.05;;;2.28;;
18411;SDS011;27097;51.738;19.472;2023-07-22T12:01:44;10.85;;;2.50;;
18411;SDS011;27097;51.738;19.472;2023-07-22T12:04:12;6.22;;;2.40;;
18411;SDS011;27097;51.738;19.472;2023-07-22T12:06:41;6.18;;;2.50;;
18411;SDS011;27097;51.738;19.472;2023-07-22T12:09:08;4.88;;;2.50;;
18411;SDS011;27097;51.738;19.472;2023-07-22T12:11:35;3.10;;;2.28;;
18411;SDS011;27097;51.738;19.472;2023-07-22T12:14:08;4.47;;;2.13;;
18411;SDS011;27097;51.738;19.472;2023-07-22T12:16:36;2.53;;;2.03;;
18411;SDS011;27097;51.738;19.472;2023-07-22T12:19:04;3.00;;;2.42;;
18411;SDS011;27097;51.738;19.472;2023-07-22T12:21:31;4.75;;;2.05;;
18411;SDS011;27097;51.738;19.472;2023-07-22T12:24:00;5.13;;;2.40;;
18411;SDS011;27097;51.738;19.472;2023-07-22T12:26:28;5.28;;;2.15;;
18411;SDS011;27097;51.738;19.472;2023-07-22T12:28:55;4.93;;;1.95;;
18411;SDS011;27097;51.738;19.472;2023-07-22T12:31:22;4.38;;;2.53;;
18411;SDS011;27097;51.738;19.472;2023-07-22T12:33:49;3.00;;;2.05;;
18411;SDS011;27097;51.738;19.472;2023-07-22T12:36:16;3.35;;;2.25;;
18411;SDS011;27097;51.738;19.472;2023-07-22T12:38:43;2.03;;;1.80;;
18411;SDS011;27097;51.738;19.472;2023-07-22T12:41:12;2.45;;;2.00;;
18411;SDS011;27097;51.738;19.472;2023-07-22T12:43:39;2.20;;;2.00;;
18411;SDS011;27097;51.738;19.472;2023-07-22T12:46:06;3.35;;;1.95;;
18411;SDS011;27097;51.738;19.472;2023-07-22T12:48:33;4.13;;;2.00;;
18411;SDS011;27097;51.738;19.472;2023-07-22T12:51:00;2.67;;;1.77;;
18411;SDS011;27097;51.738;19.472;2023-07-22T12:53:27;3.03;;;1.90;;
18411;SDS011;27097;51.738;19.472;2023-07-22T12:55:54;3.80;;;2.25;;
18411;SDS011;27097;51.738;19.472;2023-07-22T12:58:22;3.92;;;2.03;;
18411;SDS011;27097;51.738;19.472;2023-07-22T13:00:49;2.45;;;2.08;;
18411;SDS011;27097;51.738;19.472;2023-07-22T13:03:18;2.80;;;1.98;;
18411;SDS011;27097;51.738;19.472;2023-07-22T13:05:45;4.82;;;2.15;;
18411;SDS011;27097;51.738;19.472;2023-07-22T13:08:12;2.70;;;2.03;;
18411;SDS011;27097;51.738;19.472;2023-07-22T13:10:39;2.63;;;2.08;;
18411;SDS011;27097;51.738;19.472;2023-07-22T13:13:09;1.98;;;1.67;;
18411;SDS011;27097;51.738;19.472;2023-07-22T13:15:38;3.92;;;2.30;;
18411;SDS011;27097;51.738;19.472;2023-07-22T13:18:05;2.70;;;1.88;;
18411;SDS011;27097;51.738;19.472;2023-07-22T13:20:32;3.10;;;1.92;;
18411;SDS011;27097;51.738;19.472;2023-07-22T13:22:59;2.58;;;1.90;;
18411;SDS011;27097;51.738;19.472;2023-07-22T13:25:26;2.95;;;1.90;;
18411;SDS011;27097;51.738;19.472;2023-07-22T13:27:53;2.00;;;1.80;;
18411;SDS011;27097;51.738;19.472;2023-07-22T13:30:20;3.30;;;2.10;;
18411;SDS011;27097;51.738;19.472;2023-07-22T13:32:48;2.47;;;1.90;;
18411;SDS011;27097;51.738;19.472;2023-07-22T13:35:15;5.30;;;2.00;;
18411;SDS011;27097;51.738;19.472;2023-07-22T13:37:42;2.72;;;2.00;;
18411;SDS011;27097;51.738;19.472;2023-07-22T13:40:09;2.28;;;2.08;;
18411;SDS011;27097;51.738;19.472;2023-07-22T13:42:37;3.13;;;2.00;;
18411;SDS011;27097;51.738;19.472;2023-07-22T13:45:04;2.88;;;1.85;;
18411;SDS011;27097;51.738;19.472;2023-07-22T13:47:32;2.90;;;1.55;;
18411;SDS011;27097;51.738;19.472;2023-07-22T13:50:03;2.95;;;1.77;;
18411;SDS011;27097;51.738;19.472;2023-07-22T13:52:30;2.03;;;1.65;;
18411;SDS011;27097;51.738;19.472;2023-07-22T13:54:57;2.45;;;1.90;;
18411;SDS011;27097;51.738;19.472;2023-07-22T13:57:25;2.25;;;1.98;;
18411;SDS011;27097;51.738;19.472;2023-07-22T13:59:52;2.58;;;2.10;;
18411;SDS011;27097;51.738;19.472;2023-07-22T14:02:19;2.78;;;2.03;;
18411;SDS011;27097;51.738;19.472;2023-07-22T14:04:45;2.58;;;2.17;;
18411;SDS011;27097;51.738;19.472;2023-07-22T14:07:14;2.30;;;1.92;;
18411;SDS011;27097;51.738;19.472;2023-07-22T14:09:41;2.05;;;1.85;;
18411;SDS011;27097;51.738;19.472;2023-07-22T14:12:08;2.17;;;1.98;;
18411;SDS011;27097;51.738;19.472;2023-07-22T14:14:36;2.20;;;2.00;;
18411;SDS011;27097;51.738;19.472;2023-07-22T14:17:03;2.08;;;1.73;;
18411;SDS011;27097;51.738;19.472;2023-07-22T14:19:30;1.90;;;1.70;;
18411;SDS011;27097;51.738;19.472;2023-07-22T14:21:57;2.65;;;1.98;;
18411;SDS011;27097;51.738;19.472;2023-07-22T14:24:25;3.03;;;1.92;;
18411;SDS011;27097;51.738;19.472;2023-07-22T14:26:53;3.53;;;1.77;;
18411;SDS011;27097;51.738;19.472;2023-07-22T14:29:20;2.20;;;1.90;;
18411;SDS011;27097;51.738;19.472;2023-07-22T14:31:47;4.78;;;1.90;;
18411;SDS011;27097;51.738;19.472;2023-07-22T14:34:14;3.20;;;2.10;;
18411;SDS011;27097;51.738;19.472;2023-07-22T14:36:41;3.97;;;2.08;;
18411;SDS011;27097;51.738;19.472;2023-07-22T14:39:09;2.50;;;2.08;;